Tecumseh, Michigan
Current Conditions -  °F | °C
As of 11:04 AM on Monday 24 Nov 2014 (Local Time) from KADG Reporting Station
Overcast Overcast  
Wind Chill: 56°   Ceiling: 3600
Heat Index: 56°   Visibility: 10mi
Dew Point: 51°   Wind: 28mph
Humidity: 84%   Direction: 230°SW
Pressure: 29.14"   Gusts: 38mph
Location:  42°N, 83.94°W
Report Text: KADG 241604Z AUTO 23024G33KT 10SM SCT023 BKN036 OVC060 13/11 A2914 RMK AO2 PK WND 21033/1601 T01330106
Loading
Personal Weather Stations






























Interactive Weather Map New forecast layout! Learn more

10-Day Weather Forecast

Advertisements
Track Severe Weather on mobile